sensor_id;sensor_type;location;lat;lon;timestamp;P1;durP1;ratioP1;P2;durP2;ratioP2
34064;SDS011;20339;49.754;20.158;2024-02-16T00:00:09;5.70;;;3.30;;
34064;SDS011;20339;49.754;20.158;2024-02-16T00:03:05;5.80;;;3.20;;
34064;SDS011;20339;49.754;20.158;2024-02-16T00:05:36;5.20;;;3.30;;
34064;SDS011;20339;49.754;20.158;2024-02-16T00:08:08;5.90;;;3.30;;
34064;SDS011;20339;49.754;20.158;2024-02-16T00:10:42;6.20;;;3.20;;
34064;SDS011;20339;49.754;20.158;2024-02-16T00:13:13;4.40;;;3.00;;
34064;SDS011;20339;49.754;20.158;2024-02-16T00:15:49;7.50;;;3.50;;
34064;SDS011;20339;49.754;20.158;2024-02-16T00:18:20;6.00;;;3.70;;
34064;SDS011;20339;49.754;20.158;2024-02-16T00:20:52;5.80;;;3.10;;
34064;SDS011;20339;49.754;20.158;2024-02-16T00:23:23;5.30;;;3.20;;
34064;SDS011;20339;49.754;20.158;2024-02-16T00:25:57;6.20;;;3.40;;
34064;SDS011;20339;49.754;20.158;2024-02-16T00:28:35;5.40;;;3.40;;
34064;SDS011;20339;49.754;20.158;2024-02-16T00:31:06;5.30;;;2.50;;
34064;SDS011;20339;49.754;20.158;2024-02-16T00:33:38;5.70;;;3.10;;
34064;SDS011;20339;49.754;20.158;2024-02-16T00:36:11;4.60;;;2.80;;
34064;SDS011;20339;49.754;20.158;2024-02-16T00:38:42;7.20;;;3.30;;
34064;SDS011;20339;49.754;20.158;2024-02-16T00:41:18;6.50;;;3.40;;
34064;SDS011;20339;49.754;20.158;2024-02-16T00:43:50;6.40;;;3.10;;
34064;SDS011;20339;49.754;20.158;2024-02-16T00:46:22;6.40;;;3.10;;
34064;SDS011;20339;49.754;20.158;2024-02-16T00:48:53;3.50;;;2.80;;
34064;SDS011;20339;49.754;20.158;2024-02-16T00:51:24;5.70;;;3.20;;
34064;SDS011;20339;49.754;20.158;2024-02-16T00:53:59;4.50;;;2.70;;
34064;SDS011;20339;49.754;20.158;2024-02-16T00:56:31;6.40;;;2.40;;
34064;SDS011;20339;49.754;20.158;2024-02-16T00:59:03;4.40;;;3.00;;
34064;SDS011;20339;49.754;20.158;2024-02-16T01:01:37;6.00;;;3.10;;
34064;SDS011;20339;49.754;20.158;2024-02-16T01:04:08;4.10;;;2.30;;
34064;SDS011;20339;49.754;20.158;2024-02-16T01:06:41;5.20;;;1.90;;
34064;SDS011;20339;49.754;20.158;2024-02-16T01:09:14;5.60;;;2.90;;
34064;SDS011;20339;49.754;20.158;2024-02-16T01:11:45;6.70;;;3.60;;
34064;SDS011;20339;49.754;20.158;2024-02-16T01:14:21;4.10;;;2.80;;
34064;SDS011;20339;49.754;20.158;2024-02-16T01:16:52;8.50;;;4.10;;
34064;SDS011;20339;49.754;20.158;2024-02-16T01:19:26;5.00;;;2.90;;
34064;SDS011;20339;49.754;20.158;2024-02-16T01:21:57;6.90;;;3.40;;
34064;SDS011;20339;49.754;20.158;2024-02-16T01:24:30;8.10;;;4.10;;
34064;SDS011;20339;49.754;20.158;2024-02-16T01:27:02;6.10;;;2.80;;
34064;SDS011;20339;49.754;20.158;2024-02-16T01:29:34;3.50;;;2.30;;
34064;SDS011;20339;49.754;20.158;2024-02-16T01:32:07;6.00;;;3.20;;
34064;SDS011;20339;49.754;20.158;2024-02-16T01:34:42;5.90;;;2.70;;
34064;SDS011;20339;49.754;20.158;2024-02-16T01:37:14;8.50;;;4.10;;
34064;SDS011;20339;49.754;20.158;2024-02-16T01:39:49;4.90;;;3.20;;
34064;SDS011;20339;49.754;20.158;2024-02-16T01:42:21;6.30;;;3.60;;
34064;SDS011;20339;49.754;20.158;2024-02-16T01:44:52;6.80;;;3.70;;
34064;SDS011;20339;49.754;20.158;2024-02-16T01:47:26;5.60;;;3.20;;
34064;SDS011;20339;49.754;20.158;2024-02-16T01:49:59;6.70;;;3.40;;
34064;SDS011;20339;49.754;20.158;2024-02-16T01:52:30;5.50;;;3.60;;
34064;SDS011;20339;49.754;20.158;2024-02-16T01:55:04;5.60;;;3.60;;
34064;SDS011;20339;49.754;20.158;2024-02-16T01:57:39;7.40;;;3.50;;
34064;SDS011;20339;49.754;20.158;2024-02-16T02:00:12;8.20;;;3.90;;
34064;SDS011;20339;49.754;20.158;2024-02-16T02:02:45;7.70;;;4.10;;
34064;SDS011;20339;49.754;20.158;2024-02-16T02:05:21;7.60;;;4.40;;
34064;SDS011;20339;49.754;20.158;2024-02-16T02:07:53;7.30;;;4.10;;
34064;SDS011;20339;49.754;20.158;2024-02-16T02:10:25;4.90;;;2.80;;
34064;SDS011;20339;49.754;20.158;2024-02-16T02:12:55;6.40;;;3.30;;
34064;SDS011;20339;49.754;20.158;2024-02-16T02:15:29;6.20;;;3.00;;
34064;SDS011;20339;49.754;20.158;2024-02-16T02:18:00;9.20;;;4.00;;
34064;SDS011;20339;49.754;20.158;2024-02-16T02:20:31;6.20;;;3.60;;
34064;SDS011;20339;49.754;20.158;2024-02-16T02:23:02;6.30;;;3.00;;
34064;SDS011;20339;49.754;20.158;2024-02-16T02:25:34;4.00;;;2.70;;
34064;SDS011;20339;49.754;20.158;2024-02-16T02:28:05;6.90;;;3.50;;
34064;SDS011;20339;49.754;20.158;2024-02-16T02:30:44;4.10;;;2.70;;
34064;SDS011;20339;49.754;20.158;2024-02-16T02:33:16;6.40;;;3.50;;
34064;SDS011;20339;49.754;20.158;2024-02-16T02:35:48;5.40;;;2.80;;
34064;SDS011;20339;49.754;20.158;2024-02-16T02:38:19;6.20;;;3.60;;
34064;SDS011;20339;49.754;20.158;2024-02-16T02:40:50;6.30;;;3.60;;
34064;SDS011;20339;49.754;20.158;2024-02-16T02:43:21;6.30;;;3.30;;
34064;SDS011;20339;49.754;20.158;2024-02-16T02:45:52;4.30;;;2.50;;
34064;SDS011;20339;49.754;20.158;2024-02-16T02:48:26;7.60;;;3.70;;
34064;SDS011;20339;49.754;20.158;2024-02-16T02:50:57;6.30;;;3.60;;
34064;SDS011;20339;49.754;20.158;2024-02-16T02:53:34;5.30;;;3.30;;
34064;SDS011;20339;49.754;20.158;2024-02-16T02:56:09;8.20;;;3.10;;
34064;SDS011;20339;49.754;20.158;2024-02-16T02:58:40;4.20;;;2.90;;
34064;SDS011;20339;49.754;20.158;2024-02-16T03:01:12;4.30;;;2.70;;
34064;SDS011;20339;49.754;20.158;2024-02-16T03:03:43;6.10;;;3.40;;
34064;SDS011;20339;49.754;20.158;2024-02-16T03:06:18;5.10;;;3.40;;
34064;SDS011;20339;49.754;20.158;2024-02-16T03:08:51;5.60;;;3.00;;
34064;SDS011;20339;49.754;20.158;2024-02-16T03:11:22;4.90;;;2.90;;
34064;SDS011;20339;49.754;20.158;2024-02-16T03:13:53;3.70;;;2.50;;
34064;SDS011;20339;49.754;20.158;2024-02-16T03:16:25;4.40;;;3.00;;
34064;SDS011;20339;49.754;20.158;2024-02-16T03:18:56;4.40;;;2.80;;
34064;SDS011;20339;49.754;20.158;2024-02-16T03:21:32;5.00;;;3.10;;
34064;SDS011;20339;49.754;20.158;2024-02-16T03:24:04;6.70;;;3.10;;
34064;SDS011;20339;49.754;20.158;2024-02-16T03:26:35;5.80;;;2.90;;
34064;SDS011;20339;49.754;20.158;2024-02-16T03:29:08;6.80;;;2.90;;
34064;SDS011;20339;49.754;20.158;2024-02-16T03:31:40;4.50;;;2.90;;
34064;SDS011;20339;49.754;20.158;2024-02-16T03:34:13;4.80;;;2.70;;
34064;SDS011;20339;49.754;20.158;2024-02-16T03:36:44;4.90;;;2.90;;
34064;SDS011;20339;49.754;20.158;2024-02-16T03:39:18;4.80;;;2.50;;
34064;SDS011;20339;49.754;20.158;2024-02-16T03:41:49;4.30;;;2.60;;
34064;SDS011;20339;49.754;20.158;2024-02-16T03:44:20;4.30;;;2.70;;
34064;SDS011;20339;49.754;20.158;2024-02-16T03:46:51;4.20;;;2.70;;
34064;SDS011;20339;49.754;20.158;2024-02-16T03:49:22;3.90;;;2.50;;
34064;SDS011;20339;49.754;20.158;2024-02-16T03:51:55;4.70;;;2.70;;
34064;SDS011;20339;49.754;20.158;2024-02-16T03:54:30;5.90;;;2.60;;
34064;SDS011;20339;49.754;20.158;2024-02-16T03:57:04;4.80;;;2.50;;
34064;SDS011;20339;49.754;20.158;2024-02-16T03:59:40;4.10;;;2.60;;
34064;SDS011;20339;49.754;20.158;2024-02-16T04:02:14;3.20;;;1.90;;
34064;SDS011;20339;49.754;20.158;2024-02-16T04:04:46;3.50;;;2.10;;
34064;SDS011;20339;49.754;20.158;2024-02-16T04:07:17;4.10;;;2.20;;
34064;SDS011;20339;49.754;20.158;2024-02-16T04:09:56;4.00;;;2.20;;
34064;SDS011;20339;49.754;20.158;2024-02-16T04:12:30;4.10;;;2.20;;
34064;SDS011;20339;49.754;20.158;2024-02-16T04:15:01;2.20;;;1.60;;
34064;SDS011;20339;49.754;20.158;2024-02-16T04:17:33;3.80;;;1.80;;
34064;SDS011;20339;49.754;20.158;2024-02-16T04:20:05;3.00;;;1.90;;
34064;SDS011;20339;49.754;20.158;2024-02-16T04:22:43;2.30;;;1.60;;
34064;SDS011;20339;49.754;20.158;2024-02-16T04:25:14;3.30;;;2.00;;
34064;SDS011;20339;49.754;20.158;2024-02-16T04:27:49;3.70;;;1.90;;
34064;SDS011;20339;49.754;20.158;2024-02-16T04:30:20;2.60;;;1.80;;
34064;SDS011;20339;49.754;20.158;2024-02-16T04:32:51;2.60;;;1.60;;
34064;SDS011;20339;49.754;20.158;2024-02-16T04:35:22;3.50;;;1.80;;
34064;SDS011;20339;49.754;20.158;2024-02-16T04:37:54;2.50;;;1.70;;
34064;SDS011;20339;49.754;20.158;2024-02-16T04:40:25;3.10;;;2.00;;
34064;SDS011;20339;49.754;20.158;2024-02-16T04:42:56;4.30;;;1.90;;
34064;SDS011;20339;49.754;20.158;2024-02-16T04:45:27;3.50;;;2.00;;
34064;SDS011;20339;49.754;20.158;2024-02-16T04:48:01;3.60;;;2.10;;
34064;SDS011;20339;49.754;20.158;2024-02-16T04:50:35;2.90;;;1.70;;
34064;SDS011;20339;49.754;20.158;2024-02-16T04:53:07;3.10;;;2.10;;
34064;SDS011;20339;49.754;20.158;2024-02-16T04:55:38;4.10;;;2.10;;
34064;SDS011;20339;49.754;20.158;2024-02-16T04:58:09;3.50;;;1.80;;
34064;SDS011;20339;49.754;20.158;2024-02-16T05:00:40;3.50;;;2.00;;
34064;SDS011;20339;49.754;20.158;2024-02-16T05:03:14;3.10;;;1.80;;
34064;SDS011;20339;49.754;20.158;2024-02-16T05:05:47;5.20;;;2.40;;
34064;SDS011;20339;49.754;20.158;2024-02-16T05:08:19;4.10;;;2.50;;
34064;SDS011;20339;49.754;20.158;2024-02-16T05:10:52;3.60;;;2.30;;
34064;SDS011;20339;49.754;20.158;2024-02-16T05:13:23;4.10;;;2.30;;
34064;SDS011;20339;49.754;20.158;2024-02-16T05:15:54;3.10;;;2.30;;
34064;SDS011;20339;49.754;20.158;2024-02-16T05:18:25;4.00;;;2.30;;
34064;SDS011;20339;49.754;20.158;2024-02-16T05:20:56;4.00;;;2.10;;
34064;SDS011;20339;49.754;20.158;2024-02-16T05:23:27;2.80;;;1.80;;
34064;SDS011;20339;49.754;20.158;2024-02-16T05:26:01;3.70;;;1.50;;
34064;SDS011;20339;49.754;20.158;2024-02-16T05:28:33;4.20;;;2.40;;
34064;SDS011;20339;49.754;20.158;2024-02-16T05:31:12;4.20;;;2.00;;
34064;SDS011;20339;49.754;20.158;2024-02-16T05:33:48;3.10;;;1.60;;
34064;SDS011;20339;49.754;20.158;2024-02-16T05:36:20;4.70;;;2.40;;
34064;SDS011;20339;49.754;20.158;2024-02-16T05:38:55;3.30;;;1.80;;
34064;SDS011;20339;49.754;20.158;2024-02-16T05:41:37;2.30;;;2.00;;
34064;SDS011;20339;49.754;20.158;2024-02-16T05:44:11;3.60;;;1.90;;
34064;SDS011;20339;49.754;20.158;2024-02-16T05:46:45;2.20;;;1.60;;
34064;SDS011;20339;49.754;20.158;2024-02-16T05:49:17;2.70;;;1.60;;
34064;SDS011;20339;49.754;20.158;2024-02-16T05:51:49;5.70;;;1.90;;
34064;SDS011;20339;49.754;20.158;2024-02-16T05:54:45;2.00;;;1.60;;
34064;SDS011;20339;49.754;20.158;2024-02-16T05:57:18;2.90;;;1.50;;
34064;SDS011;20339;49.754;20.158;2024-02-16T05:59:49;4.00;;;2.30;;
34064;SDS011;20339;49.754;20.158;2024-02-16T06:02:23;3.60;;;2.00;;
34064;SDS011;20339;49.754;20.158;2024-02-16T06:04:55;3.10;;;2.00;;
34064;SDS011;20339;49.754;20.158;2024-02-16T06:07:27;3.60;;;2.00;;
34064;SDS011;20339;49.754;20.158;2024-02-16T06:10:01;3.00;;;2.20;;
34064;SDS011;20339;49.754;20.158;2024-02-16T06:12:35;3.90;;;2.40;;
34064;SDS011;20339;49.754;20.158;2024-02-16T06:15:07;3.80;;;2.70;;
34064;SDS011;20339;49.754;20.158;2024-02-16T06:17:39;2.50;;;1.80;;
34064;SDS011;20339;49.754;20.158;2024-02-16T06:20:13;2.40;;;1.70;;
34064;SDS011;20339;49.754;20.158;2024-02-16T06:22:44;4.20;;;2.10;;
34064;SDS011;20339;49.754;20.158;2024-02-16T06:25:15;2.80;;;2.30;;
34064;SDS011;20339;49.754;20.158;2024-02-16T06:27:46;3.40;;;2.10;;
34064;SDS011;20339;49.754;20.158;2024-02-16T06:30:18;4.40;;;2.20;;
34064;SDS011;20339;49.754;20.158;2024-02-16T06:32:49;3.80;;;1.90;;
34064;SDS011;20339;49.754;20.158;2024-02-16T06:35:22;3.90;;;2.20;;
34064;SDS011;20339;49.754;20.158;2024-02-16T06:37:55;4.10;;;2.90;;
34064;SDS011;20339;49.754;20.158;2024-02-16T06:40:26;3.40;;;2.30;;
34064;SDS011;20339;49.754;20.158;2024-02-16T06:42:57;2.60;;;1.90;;
34064;SDS011;20339;49.754;20.158;2024-02-16T06:45:28;3.30;;;2.30;;
34064;SDS011;20339;49.754;20.158;2024-02-16T06:48:02;4.30;;;2.20;;
34064;SDS011;20339;49.754;20.158;2024-02-16T06:50:34;3.00;;;2.20;;
34064;SDS011;20339;49.754;20.158;2024-02-16T06:53:07;3.30;;;2.00;;
34064;SDS011;20339;49.754;20.158;2024-02-16T06:55:43;3.10;;;2.40;;
34064;SDS011;20339;49.754;20.158;2024-02-16T06:58:15;3.10;;;2.00;;
34064;SDS011;20339;49.754;20.158;2024-02-16T07:00:49;3.20;;;2.10;;
34064;SDS011;20339;49.754;20.158;2024-02-16T07:03:20;3.70;;;2.20;;
34064;SDS011;20339;49.754;20.158;2024-02-16T07:05:53;3.50;;;2.40;;
34064;SDS011;20339;49.754;20.158;2024-02-16T07:08:26;2.90;;;2.30;;
34064;SDS011;20339;49.754;20.158;2024-02-16T07:10:59;3.40;;;2.50;;
34064;SDS011;20339;49.754;20.158;2024-02-16T07:13:33;2.60;;;2.10;;
34064;SDS011;20339;49.754;20.158;2024-02-16T07:16:07;2.40;;;1.80;;
34064;SDS011;20339;49.754;20.158;2024-02-16T07:18:39;2.80;;;1.90;;
34064;SDS011;20339;49.754;20.158;2024-02-16T07:21:19;3.20;;;2.10;;
34064;SDS011;20339;49.754;20.158;2024-02-16T07:23:51;2.30;;;1.70;;
34064;SDS011;20339;49.754;20.158;2024-02-16T07:26:22;3.40;;;2.10;;
34064;SDS011;20339;49.754;20.158;2024-02-16T07:28:53;3.30;;;2.10;;
34064;SDS011;20339;49.754;20.158;2024-02-16T07:31:24;3.20;;;2.40;;
34064;SDS011;20339;49.754;20.158;2024-02-16T07:34:02;3.30;;;2.40;;
34064;SDS011;20339;49.754;20.158;2024-02-16T07:36:37;2.40;;;1.90;;
34064;SDS011;20339;49.754;20.158;2024-02-16T07:39:09;2.90;;;2.30;;
34064;SDS011;20339;49.754;20.158;2024-02-16T07:41:43;2.30;;;1.90;;
34064;SDS011;20339;49.754;20.158;2024-02-16T07:44:14;4.00;;;3.00;;
34064;SDS011;20339;49.754;20.158;2024-02-16T07:46:45;3.00;;;2.30;;
34064;SDS011;20339;49.754;20.158;2024-02-16T07:49:19;3.00;;;2.30;;
34064;SDS011;20339;49.754;20.158;2024-02-16T07:51:50;2.80;;;2.20;;
34064;SDS011;20339;49.754;20.158;2024-02-16T07:54:22;3.50;;;2.50;;
34064;SDS011;20339;49.754;20.158;2024-02-16T07:56:54;2.70;;;2.20;;
34064;SDS011;20339;49.754;20.158;2024-02-16T07:59:27;3.80;;;2.20;;
34064;SDS011;20339;49.754;20.158;2024-02-16T08:01:58;3.30;;;2.60;;
34064;SDS011;20339;49.754;20.158;2024-02-16T08:04:31;3.60;;;2.70;;
34064;SDS011;20339;49.754;20.158;2024-02-16T08:07:02;3.30;;;2.70;;
34064;SDS011;20339;49.754;20.158;2024-02-16T08:09:34;3.90;;;2.40;;
34064;SDS011;20339;49.754;20.158;2024-02-16T08:12:09;3.80;;;2.60;;
34064;SDS011;20339;49.754;20.158;2024-02-16T08:14:48;3.20;;;2.40;;
34064;SDS011;20339;49.754;20.158;2024-02-16T08:17:21;3.40;;;2.40;;
34064;SDS011;20339;49.754;20.158;2024-02-16T08:19:53;5.50;;;2.50;;
34064;SDS011;20339;49.754;20.158;2024-02-16T08:22:27;3.40;;;2.30;;
34064;SDS011;20339;49.754;20.158;2024-02-16T08:24:58;4.10;;;2.60;;
34064;SDS011;20339;49.754;20.158;2024-02-16T08:27:36;5.50;;;3.40;;
34064;SDS011;20339;49.754;20.158;2024-02-16T08:30:08;3.60;;;2.50;;
34064;SDS011;20339;49.754;20.158;2024-02-16T08:32:41;3.30;;;2.40;;
34064;SDS011;20339;49.754;20.158;2024-02-16T08:35:13;3.40;;;2.40;;
34064;SDS011;20339;49.754;20.158;2024-02-16T08:37:48;3.40;;;2.30;;
34064;SDS011;20339;49.754;20.158;2024-02-16T08:40:21;2.80;;;2.20;;
34064;SDS011;20339;49.754;20.158;2024-02-16T08:42:52;2.70;;;1.70;;
34064;SDS011;20339;49.754;20.158;2024-02-16T08:45:23;2.60;;;1.90;;
34064;SDS011;20339;49.754;20.158;2024-02-16T08:47:55;3.20;;;1.70;;
34064;SDS011;20339;49.754;20.158;2024-02-16T08:50:26;2.70;;;1.90;;
34064;SDS011;20339;49.754;20.158;2024-02-16T08:52:57;2.90;;;1.60;;
34064;SDS011;20339;49.754;20.158;2024-02-16T08:55:28;2.70;;;1.80;;
34064;SDS011;20339;49.754;20.158;2024-02-16T08:57:59;3.60;;;1.80;;
34064;SDS011;20339;49.754;20.158;2024-02-16T09:00:31;4.20;;;2.30;;
34064;SDS011;20339;49.754;20.158;2024-02-16T09:03:03;2.60;;;1.90;;
34064;SDS011;20339;49.754;20.158;2024-02-16T09:05:38;3.10;;;2.40;;
34064;SDS011;20339;49.754;20.158;2024-02-16T09:08:12;3.70;;;1.90;;
34064;SDS011;20339;49.754;20.158;2024-02-16T09:10:48;2.80;;;1.50;;
34064;SDS011;20339;49.754;20.158;2024-02-16T09:13:19;4.30;;;2.50;;
34064;SDS011;20339;49.754;20.158;2024-02-16T09:15:56;3.20;;;1.50;;
34064;SDS011;20339;49.754;20.158;2024-02-16T09:18:31;4.60;;;2.70;;
34064;SDS011;20339;49.754;20.158;2024-02-16T09:21:03;5.10;;;2.10;;
34064;SDS011;20339;49.754;20.158;2024-02-16T09:23:39;3.00;;;1.90;;
34064;SDS011;20339;49.754;20.158;2024-02-16T09:26:11;3.60;;;2.30;;
34064;SDS011;20339;49.754;20.158;2024-02-16T09:28:42;4.00;;;2.20;;
34064;SDS011;20339;49.754;20.158;2024-02-16T09:31:19;6.20;;;1.90;;
34064;SDS011;20339;49.754;20.158;2024-02-16T09:33:50;3.20;;;1.40;;
34064;SDS011;20339;49.754;20.158;2024-02-16T09:36:22;3.90;;;1.70;;
34064;SDS011;20339;49.754;20.158;2024-02-16T09:38:53;3.30;;;2.30;;
34064;SDS011;20339;49.754;20.158;2024-02-16T09:41:26;3.50;;;2.00;;
34064;SDS011;20339;49.754;20.158;2024-02-16T09:43:58;7.10;;;2.10;;
34064;SDS011;20339;49.754;20.158;2024-02-16T09:46:32;3.90;;;2.40;;
34064;SDS011;20339;49.754;20.158;2024-02-16T09:49:13;3.40;;;2.00;;
34064;SDS011;20339;49.754;20.158;2024-02-16T09:51:50;4.00;;;2.10;;
34064;SDS011;20339;49.754;20.158;2024-02-16T09:54:24;5.20;;;2.20;;
34064;SDS011;20339;49.754;20.158;2024-02-16T09:56:58;3.20;;;1.90;;
34064;SDS011;20339;49.754;20.158;2024-02-16T09:59:30;2.00;;;1.40;;
34064;SDS011;20339;49.754;20.158;2024-02-16T10:02:05;2.00;;;1.60;;
34064;SDS011;20339;49.754;20.158;2024-02-16T10:04:38;3.30;;;1.80;;
34064;SDS011;20339;49.754;20.158;2024-02-16T10:07:10;3.60;;;1.90;;
34064;SDS011;20339;49.754;20.158;2024-02-16T10:09:42;1.80;;;1.20;;
34064;SDS011;20339;49.754;20.158;2024-02-16T10:12:19;2.90;;;1.80;;
34064;SDS011;20339;49.754;20.158;2024-02-16T10:14:55;3.10;;;1.80;;
34064;SDS011;20339;49.754;20.158;2024-02-16T10:17:33;4.20;;;1.90;;
34064;SDS011;20339;49.754;20.158;2024-02-16T10:20:08;2.30;;;1.60;;
34064;SDS011;20339;49.754;20.158;2024-02-16T10:22:49;2.10;;;1.30;;
34064;SDS011;20339;49.754;20.158;2024-02-16T10:25:41;2.60;;;1.70;;
34064;SDS011;20339;49.754;20.158;2024-02-16T10:28:14;3.00;;;1.70;;
34064;SDS011;20339;49.754;20.158;2024-02-16T10:30:57;3.20;;;2.20;;
34064;SDS011;20339;49.754;20.158;2024-02-16T10:33:33;2.20;;;1.50;;
34064;SDS011;20339;49.754;20.158;2024-02-16T10:36:10;1.60;;;1.40;;
34064;SDS011;20339;49.754;20.158;2024-02-16T10:38:44;1.80;;;1.40;;
34064;SDS011;20339;49.754;20.158;2024-02-16T10:41:21;3.00;;;1.50;;
34064;SDS011;20339;49.754;20.158;2024-02-16T10:43:55;1.80;;;1.20;;
34064;SDS011;20339;49.754;20.158;2024-02-16T10:46:28;2.20;;;1.50;;
34064;SDS011;20339;49.754;20.158;2024-02-16T10:48:59;3.20;;;1.80;;
34064;SDS011;20339;49.754;20.158;2024-02-16T10:51:35;2.20;;;1.50;;
34064;SDS011;20339;49.754;20.158;2024-02-16T10:54:13;2.10;;;1.30;;
34064;SDS011;20339;49.754;20.158;2024-02-16T10:56:52;1.40;;;1.10;;
34064;SDS011;20339;49.754;20.158;2024-02-16T10:59:24;3.50;;;1.80;;
34064;SDS011;20339;49.754;20.158;2024-02-16T11:02:03;3.60;;;1.30;;
34064;SDS011;20339;49.754;20.158;2024-02-16T11:04:37;2.50;;;1.30;;
34064;SDS011;20339;49.754;20.158;2024-02-16T11:07:19;4.90;;;1.80;;
34064;SDS011;20339;49.754;20.158;2024-02-16T11:09:53;2.80;;;1.30;;
34064;SDS011;20339;49.754;20.158;2024-02-16T11:12:32;1.90;;;1.20;;
34064;SDS011;20339;49.754;20.158;2024-02-16T11:15:09;1.40;;;1.30;;
34064;SDS011;20339;49.754;20.158;2024-02-16T11:17:42;2.40;;;1.40;;
34064;SDS011;20339;49.754;20.158;2024-02-16T11:20:14;1.70;;;1.00;;
34064;SDS011;20339;49.754;20.158;2024-02-16T11:22:51;1.80;;;1.10;;
34064;SDS011;20339;49.754;20.158;2024-02-16T11:25:32;1.30;;;1.10;;
34064;SDS011;20339;49.754;20.158;2024-02-16T11:28:06;1.90;;;1.40;;
34064;SDS011;20339;49.754;20.158;2024-02-16T11:30:40;2.80;;;1.70;;
34064;SDS011;20339;49.754;20.158;2024-02-16T11:33:12;3.80;;;1.70;;
34064;SDS011;20339;49.754;20.158;2024-02-16T11:35:43;3.40;;;1.60;;
34064;SDS011;20339;49.754;20.158;2024-02-16T11:38:32;2.00;;;1.50;;
34064;SDS011;20339;49.754;20.158;2024-02-16T11:41:04;2.90;;;1.70;;
34064;SDS011;20339;49.754;20.158;2024-02-16T11:43:38;3.30;;;1.70;;
34064;SDS011;20339;49.754;20.158;2024-02-16T11:46:13;2.60;;;1.70;;
34064;SDS011;20339;49.754;20.158;2024-02-16T11:49:05;2.30;;;1.80;;
34064;SDS011;20339;49.754;20.158;2024-02-16T11:51:36;4.00;;;2.20;;
34064;SDS011;20339;49.754;20.158;2024-02-16T11:54:12;2.90;;;1.70;;
34064;SDS011;20339;49.754;20.158;2024-02-16T11:56:55;2.10;;;1.50;;
34064;SDS011;20339;49.754;20.158;2024-02-16T11:59:28;3.50;;;1.90;;
34064;SDS011;20339;49.754;20.158;2024-02-16T12:02:02;2.00;;;1.70;;
34064;SDS011;20339;49.754;20.158;2024-02-16T12:04:36;3.80;;;2.30;;
34064;SDS011;20339;49.754;20.158;2024-02-16T12:07:09;2.50;;;1.80;;
34064;SDS011;20339;49.754;20.158;2024-02-16T12:09:42;3.10;;;1.70;;
34064;SDS011;20339;49.754;20.158;2024-02-16T12:12:28;3.10;;;2.00;;
34064;SDS011;20339;49.754;20.158;2024-02-16T12:15:04;3.10;;;2.10;;
34064;SDS011;20339;49.754;20.158;2024-02-16T12:17:37;3.90;;;2.00;;
34064;SDS011;20339;49.754;20.158;2024-02-16T12:20:12;3.00;;;2.20;;
34064;SDS011;20339;49.754;20.158;2024-02-16T12:22:45;5.80;;;2.70;;
34064;SDS011;20339;49.754;20.158;2024-02-16T12:25:20;4.90;;;2.90;;
34064;SDS011;20339;49.754;20.158;2024-02-16T12:27:52;5.10;;;3.00;;
34064;SDS011;20339;49.754;20.158;2024-02-16T12:30:26;4.10;;;2.40;;
34064;SDS011;20339;49.754;20.158;2024-02-16T12:32:58;5.30;;;2.70;;
34064;SDS011;20339;49.754;20.158;2024-02-16T12:35:30;4.00;;;2.70;;
34064;SDS011;20339;49.754;20.158;2024-02-16T12:38:05;4.00;;;2.80;;
34064;SDS011;20339;49.754;20.158;2024-02-16T12:40:38;4.30;;;2.70;;
34064;SDS011;20339;49.754;20.158;2024-02-16T12:43:19;4.50;;;2.40;;
34064;SDS011;20339;49.754;20.158;2024-02-16T12:45:54;4.40;;;3.00;;
34064;SDS011;20339;49.754;20.158;2024-02-16T12:48:35;4.30;;;2.30;;
34064;SDS011;20339;49.754;20.158;2024-02-16T12:51:09;4.80;;;2.80;;
34064;SDS011;20339;49.754;20.158;2024-02-16T12:53:47;3.70;;;2.50;;
34064;SDS011;20339;49.754;20.158;2024-02-16T12:56:21;4.10;;;2.70;;
34064;SDS011;20339;49.754;20.158;2024-02-16T13:01:44;4.10;;;3.10;;
34064;SDS011;20339;49.754;20.158;2024-02-16T13:04:31;4.80;;;2.50;;
34064;SDS011;20339;49.754;20.158;2024-02-16T13:07:08;3.20;;;2.50;;
34064;SDS011;20339;49.754;20.158;2024-02-16T13:09:42;3.40;;;2.50;;
34064;SDS011;20339;49.754;20.158;2024-02-16T13:12:15;3.50;;;2.20;;
34064;SDS011;20339;49.754;20.158;2024-02-16T13:14:53;4.30;;;2.60;;
34064;SDS011;20339;49.754;20.158;2024-02-16T13:17:32;5.40;;;2.50;;
34064;SDS011;20339;49.754;20.158;2024-02-16T13:20:12;3.10;;;2.30;;
34064;SDS011;20339;49.754;20.158;2024-02-16T13:22:46;3.10;;;2.20;;
34064;SDS011;20339;49.754;20.158;2024-02-16T13:25:18;3.10;;;1.90;;
34064;SDS011;20339;49.754;20.158;2024-02-16T13:27:55;2.60;;;2.10;;
34064;SDS011;20339;49.754;20.158;2024-02-16T13:30:29;5.60;;;2.50;;
34064;SDS011;20339;49.754;20.158;2024-02-16T13:36:41;3.70;;;2.10;;
34064;SDS011;20339;49.754;20.158;2024-02-16T13:39:23;4.60;;;2.50;;
34064;SDS011;20339;49.754;20.158;2024-02-16T13:41:57;4.40;;;2.30;;
34064;SDS011;20339;49.754;20.158;2024-02-16T13:44:28;4.50;;;2.70;;
34064;SDS011;20339;49.754;20.158;2024-02-16T13:46:59;3.00;;;2.20;;
34064;SDS011;20339;49.754;20.158;2024-02-16T13:49:33;2.70;;;1.90;;
34064;SDS011;20339;49.754;20.158;2024-02-16T13:52:08;2.50;;;1.70;;
34064;SDS011;20339;49.754;20.158;2024-02-16T13:54:44;3.20;;;1.90;;
34064;SDS011;20339;49.754;20.158;2024-02-16T13:57:17;3.70;;;2.60;;
34064;SDS011;20339;49.754;20.158;2024-02-16T13:59:49;4.60;;;2.70;;
34064;SDS011;20339;49.754;20.158;2024-02-16T14:05:09;4.50;;;2.30;;
34064;SDS011;20339;49.754;20.158;2024-02-16T14:07:41;5.10;;;2.40;;
34064;SDS011;20339;49.754;20.158;2024-02-16T14:10:18;5.80;;;2.80;;
34064;SDS011;20339;49.754;20.158;2024-02-16T14:12:50;4.00;;;2.10;;
34064;SDS011;20339;49.754;20.158;2024-02-16T14:15:21;4.90;;;2.50;;
34064;SDS011;20339;49.754;20.158;2024-02-16T14:17:52;4.90;;;2.90;;
34064;SDS011;20339;49.754;20.158;2024-02-16T14:20:24;4.90;;;2.50;;
34064;SDS011;20339;49.754;20.158;2024-02-16T14:22:58;3.50;;;2.50;;
34064;SDS011;20339;49.754;20.158;2024-02-16T14:25:31;5.00;;;3.40;;
34064;SDS011;20339;49.754;20.158;2024-02-16T14:28:03;5.20;;;3.20;;
34064;SDS011;20339;49.754;20.158;2024-02-16T14:30:35;5.40;;;2.80;;
34064;SDS011;20339;49.754;20.158;2024-02-16T14:33:07;5.50;;;2.70;;
34064;SDS011;20339;49.754;20.158;2024-02-16T14:35:38;4.00;;;2.50;;
34064;SDS011;20339;49.754;20.158;2024-02-16T14:38:12;5.00;;;2.90;;
34064;SDS011;20339;49.754;20.158;2024-02-16T14:40:43;3.80;;;2.50;;
34064;SDS011;20339;49.754;20.158;2024-02-16T14:43:14;5.00;;;2.30;;
34064;SDS011;20339;49.754;20.158;2024-02-16T14:45:48;5.20;;;3.70;;
34064;SDS011;20339;49.754;20.158;2024-02-16T14:48:20;6.10;;;4.30;;
34064;SDS011;20339;49.754;20.158;2024-02-16T14:50:54;7.80;;;4.80;;
34064;SDS011;20339;49.754;20.158;2024-02-16T14:53:26;11.40;;;8.00;;
34064;SDS011;20339;49.754;20.158;2024-02-16T14:56:00;9.60;;;5.10;;
34064;SDS011;20339;49.754;20.158;2024-02-16T14:58:31;7.90;;;5.00;;
34064;SDS011;20339;49.754;20.158;2024-02-16T15:01:03;9.50;;;5.10;;
34064;SDS011;20339;49.754;20.158;2024-02-16T15:03:34;7.50;;;3.80;;
34064;SDS011;20339;49.754;20.158;2024-02-16T15:06:06;7.90;;;4.70;;
34064;SDS011;20339;49.754;20.158;2024-02-16T15:08:37;7.60;;;4.80;;
34064;SDS011;20339;49.754;20.158;2024-02-16T15:11:09;9.90;;;4.80;;
34064;SDS011;20339;49.754;20.158;2024-02-16T15:13:44;6.70;;;4.50;;
34064;SDS011;20339;49.754;20.158;2024-02-16T15:16:17;10.40;;;5.10;;
34064;SDS011;20339;49.754;20.158;2024-02-16T15:18:51;6.50;;;4.50;;